Maldives Meteorological Service

TAFS

Station TAF
VRMM
VRMM 130500Z 1306/1412 34009KT 9999 FEW018TCU BKN120 TEMPO 1308/1314 5000 -SHRA FEW018CB=
VRMH
VRMH 130500Z 1306/1412 07012KT 9999 FEW018 TEMPO 1306/1312 FEW019CB=
VRMK
VRMK 130500Z 1306/1406 35004KT 9999 FEW018TCU TEMPO 1308/1314 5000 -SHRA FEW017CB=
VRMT
VRMT 130500Z 1306/1406 35004KT 9999 –RA FEW017TCU BKN110 TEMPO 1306/1312 3000 TSRA FEW017CB=
VRMG
VRMG 130500Z 1306/1412 VRB02KT 9999 –RA FEW017TCU BKN110 TEMPO 1306/1312 3000 TSRA FEW018CB SCT016 OVC100=